Time;durP1;ratioP1;P1;durP2;ratioP2;P2;SDS_P1;SDS_P2;PMS_P1;PMS_P2;Temp;Humidity;BMP_temperature;BMP_pressure;BME280_temperature;BME280_humidity;BME280_pressure;Samples;Min_cycle;Max_cycle;Signal;HPM_P1;HPM_P2
2024/04/22 00:02:21;;;;;;;;;;;;;;;;;;5512360;26;19928;-81
2024/04/22 00:04:46;;;;;;;;;;;;;;;;;;5474249;26;19927;-80
2024/04/22 00:07:11;;;;;;;;;;;;;;;;;;5504953;26;20335;-81
2024/04/22 00:09:36;;;;;;;;;;;;;;;;;;5471782;26;19928;-81
2024/04/22 00:12:01;;;;;;;;;;;;;;;;;;5504203;26;19928;-81
2024/04/22 00:14:26;;;;;;;;;;;;;;;;;;5503077;26;19936;-81
2024/04/22 00:16:52;;;;;;;;;;;;;;;;;;5502747;26;20008;-81
2024/04/22 00:19:17;;;;;;;;;;;;;;;;;;5467741;26;19936;-80
2024/04/22 00:21:42;;;;;;;;;;;;;;;;;;5484121;26;19935;-81
2024/04/22 00:24:07;;;;;;;;;;;;;;;;;;5501088;26;19932;-81
2024/04/22 00:26:32;;;;;;;;;;;;;;;;;;5515901;26;19935;-82
2024/04/22 00:28:57;;;;;;;;;;;;;;;;;;5516903;25;19928;-81
2024/04/22 00:31:22;;;;;;;;;;;;;;;;;;5512427;26;20251;-82
2024/04/22 00:33:48;;;;;;;;;;;;;;;;;;5486716;26;19995;-81
2024/04/22 00:36:13;;;;;;;;;;;;;;;;;;5502248;26;19928;-82
2024/04/22 00:38:38;;;;;;;;;;;;;;;;;;5516258;25;19934;-80
2024/04/22 00:41:03;;;;;;;;;;;;;;;;;;5516965;25;20434;-82
2024/04/22 00:43:28;;;;;;;;;;;;;;;;;;5499995;26;19939;-81
2024/04/22 00:45:53;;;;;;;;;;;;;;;;;;5504793;26;20367;-83
2024/04/22 00:48:19;;;;;;;;;;;;;;;;;;5520899;26;19935;-80
2024/04/22 00:50:44;;;;;;;;;;;;;;;;;;5470817;26;19934;-82
2024/04/22 00:53:09;;;;;;;;;;;;;;;;;;5506816;25;20381;-82
2024/04/22 00:55:34;;;;;;;;;;;;;;;;;;5472634;26;20370;-82
2024/04/22 00:58:00;;;;;;;;;;;;;;;;;;5519432;26;20377;-83
2024/04/22 01:00:25;;;;;;;;;;;;;;;;;;5490515;26;19928;-82
2024/04/22 01:02:50;;;;;;;;;;;;;;;;;;5498425;26;19934;-82
2024/04/22 01:05:15;;;;;;;;;;;;;;;;;;5465410;26;19928;-80
2024/04/22 01:07:40;;;;;;;;;;;;;;;;;;5499865;26;19928;-80
2024/04/22 01:10:05;;;;;;;;;;;;;;;;;;5466053;26;19928;-81
2024/04/22 01:12:31;;;;;;;;;;;;;;;;;;5466956;26;19928;-81
2024/04/22 01:14:56;;;;;;;;;;;;;;;;;;5497560;26;19928;-80
2024/04/22 01:17:21;;;;;;;;;;;;;;;;;;5466680;26;19928;-79
2024/04/22 01:19:46;;;;;;;;;;;;;;;;;;5498120;26;19932;-79
2024/04/22 01:22:12;;;;;;;;;;;;;;;;;;5475232;26;19934;-78
2024/04/22 01:24:37;;;;;;;;;;;;;;;;;;5486309;26;19934;-80
2024/04/22 01:27:02;;;;;;;;;;;;;;;;;;5496286;26;19928;-79
2024/04/22 01:29:27;;;;;;;;;;;;;;;;;;5495431;26;19935;-79
2024/04/22 01:31:52;;;;;;;;;;;;;;;;;;5457769;26;19960;-79
2024/04/22 01:34:17;;;;;;;;;;;;;;;;;;5489168;26;19935;-78
2024/04/22 01:36:43;;;;;;;;;;;;;;;;;;5458949;26;19934;-79
2024/04/22 01:39:08;;;;;;;;;;;;;;;;;;5459340;26;20366;-79
2024/04/22 01:41:33;;;;;;;;;;;;;;;;;;5505768;26;19999;-80
2024/04/22 01:43:58;;;;;;;;;;;;;;;;;;5492101;26;19944;-79
2024/04/22 01:46:23;;;;;;;;;;;;;;;;;;5507283;25;20336;-81
2024/04/22 01:48:48;;;;;;;;;;;;;;;;;;5492318;26;20306;-81
2024/04/22 01:51:13;;;;;;;;;;;;;;;;;;5468902;26;20343;-80
2024/04/22 01:53:38;;;;;;;;;;;;;;;;;;5528324;25;20258;-77
2024/04/22 01:56:04;;;;;;;;;;;;;;;;;;5491638;26;19928;-78
2024/04/22 01:58:29;;;;;;;;;;;;;;;;;;5492538;26;19939;-79
2024/04/22 02:00:54;;;;;;;;;;;;;;;;;;5465220;26;19935;-78
2024/04/22 02:03:19;;;;;;;;;;;;;;;;;;5504217;26;19928;-78
2024/04/22 02:05:44;;;;;;;;;;;;;;;;;;5495693;26;19939;-78
2024/04/22 02:08:09;;;;;;;;;;;;;;;;;;5506632;25;19997;-79
2024/04/22 02:10:34;;;;;;;;;;;;;;;;;;5493149;26;20402;-78
2024/04/22 02:12:59;;;;;;;;;;;;;;;;;;5493851;26;20291;-78
2024/04/22 02:15:25;;;;;;;;;;;;;;;;;;5493037;26;20275;-80
2024/04/22 02:17:50;;;;;;;;;;;;;;;;;;5509731;25;19927;-78
2024/04/22 02:20:15;;;;;;;;;;;;;;;;;;5503032;26;20254;-79
2024/04/22 02:22:40;;;;;;;;;;;;;;;;;;5499615;26;19928;-78
2024/04/22 02:25:05;;;;;;;;;;;;;;;;;;5494392;26;19935;-78
2024/04/22 02:27:30;;;;;;;;;;;;;;;;;;5462057;26;20363;-80
2024/04/22 02:29:55;;;;;;;;;;;;;;;;;;5494706;26;19935;-80
2024/04/22 02:32:20;;;;;;;;;;;;;;;;;;5462741;26;20161;-80
2024/04/22 02:34:46;;;;;;;;;;;;;;;;;;5509593;26;19928;-80
2024/04/22 02:37:11;;;;;;;;;;;;;;;;;;5470226;26;19941;-80
2024/04/22 02:39:36;;;;;;;;;;;;;;;;;;5500978;26;19981;-79
2024/04/22 02:42:01;;;;;;;;;;;;;;;;;;5493921;26;19968;-80
2024/04/22 02:44:26;;;;;;;;;;;;;;;;;;5465742;26;20019;-80
2024/04/22 02:46:51;;;;;;;;;;;;;;;;;;5466652;26;19928;-79
2024/04/22 02:49:16;;;;;;;;;;;;;;;;;;5467470;26;20005;-78
2024/04/22 02:51:41;;;;;;;;;;;;;;;;;;5500000;26;19935;-79
2024/04/22 02:54:06;;;;;;;;;;;;;;;;;;5468090;26;20258;-78
2024/04/22 02:56:32;;;;;;;;;;;;;;;;;;5500112;26;19931;-79
2024/04/22 02:58:57;;;;;;;;;;;;;;;;;;5501152;26;19928;-79
2024/04/22 03:01:22;;;;;;;;;;;;;;;;;;5482186;26;19940;-78
2024/04/22 03:03:47;;;;;;;;;;;;;;;;;;5500466;26;19940;-78
2024/04/22 03:06:12;;;;;;;;;;;;;;;;;;5478376;26;19934;-78
2024/04/22 03:08:37;;;;;;;;;;;;;;;;;;5498665;26;19928;-79
2024/04/22 03:11:03;;;;;;;;;;;;;;;;;;5466287;26;19931;-79
2024/04/22 03:13:28;;;;;;;;;;;;;;;;;;5497897;26;19934;-80
2024/04/22 03:15:53;;;;;;;;;;;;;;;;;;5466538;26;19968;-79
2024/04/22 03:18:18;;;;;;;;;;;;;;;;;;5466365;26;19935;-80
2024/04/22 03:20:43;;;;;;;;;;;;;;;;;;5466909;26;19932;-80
2024/04/22 03:23:08;;;;;;;;;;;;;;;;;;5480729;26;19974;-81
2024/04/22 03:25:33;;;;;;;;;;;;;;;;;;5499073;26;20378;-81
2024/04/22 03:27:58;;;;;;;;;;;;;;;;;;5497213;26;20382;-81
2024/04/22 03:30:24;;;;;;;;;;;;;;;;;;5478203;26;19927;-81
2024/04/22 03:32:49;;;;;;;;;;;;;;;;;;5469593;26;20319;-80
2024/04/22 03:35:14;;;;;;;;;;;;;;;;;;5432709;21;19940;-79
2024/04/22 03:37:41;;;;;;;;;;;;;;;;;;5455349;26;20221;-79
2024/04/22 03:40:06;;;;;;;;;;;;;;;;;;5456709;26;19974;-79
2024/04/22 03:42:31;;;;;;;;;;;;;;;;;;5456833;26;20295;-79
2024/04/22 03:44:56;;;;;;;;;;;;;;;;;;5426217;26;19932;-79
2024/04/22 03:50:05;;;;;;;;;;;;;;;;;;5458901;26;19936;-78
2024/04/22 03:52:32;;;;;;;;;;;;;;;;;;5425956;26;19941;-79
2024/04/22 03:54:57;;;;;;;;;;;;;;;;;;5433633;26;19940;-79
2024/04/22 03:57:22;;;;;;;;;;;;;;;;;;5423121;26;19929;-79
2024/04/22 03:59:47;;;;;;;;;;;;;;;;;;5458152;26;20301;-79
2024/04/22 04:02:12;;;;;;;;;;;;;;;;;;5426256;26;19928;-79
2024/04/22 04:04:37;;;;;;;;;;;;;;;;;;5425920;26;19932;-78
2024/04/22 04:07:02;;;;;;;;;;;;;;;;;;5397394;26;19929;-80
2024/04/22 04:09:28;;;;;;;;;;;;;;;;;;5459025;26;19940;-82
2024/04/22 04:11:53;;;;;;;;;;;;;;;;;;5410952;26;19929;-80
2024/04/22 04:14:18;;;;;;;;;;;;;;;;;;5406038;26;19929;-80
2024/04/22 04:16:43;;;;;;;;;;;;;;;;;;5407425;26;19930;-79
2024/04/22 04:19:08;;;;;;;;;;;;;;;;;;5402919;26;19975;-78
2024/04/22 04:21:33;;;;;;;;;;;;;;;;;;5405589;26;19933;-78
2024/04/22 04:23:58;;;;;;;;;;;;;;;;;;5437795;26;19936;-78
2024/04/22 04:26:23;;;;;;;;;;;;;;;;;;5454811;26;19928;-78
2024/04/22 04:28:49;;;;;;;;;;;;;;;;;;5405880;26;19940;-80
2024/04/22 04:31:14;;;;;;;;;;;;;;;;;;5411237;26;19928;-80
2024/04/22 04:33:39;;;;;;;;;;;;;;;;;;5407641;26;19929;-79
2024/04/22 04:36:04;;;;;;;;;;;;;;;;;;5419128;26;19997;-80
2024/04/22 04:38:29;;;;;;;;;;;;;;;;;;5401937;26;19937;-80
2024/04/22 04:40:54;;;;;;;;;;;;;;;;;;5418673;26;20278;-78
2024/04/22 04:43:19;;;;;;;;;;;;;;;;;;5418811;26;19936;-78
2024/04/22 04:45:45;;;;;;;;;;;;;;;;;;5372577;26;19930;-78
2024/04/22 04:48:10;;;;;;;;;;;;;;;;;;5410593;26;19933;-78
2024/04/22 04:50:35;;;;;;;;;;;;;;;;;;5411584;26;20349;-78
2024/04/22 04:53:00;;;;;;;;;;;;;;;;;;5418456;26;19975;-78
2024/04/22 04:55:25;;;;;;;;;;;;;;;;;;5418230;26;19937;-79
2024/04/22 04:57:50;;;;;;;;;;;;;;;;;;5415371;26;20438;-79
2024/04/22 05:00:15;;;;;;;;;;;;;;;;;;5397585;26;20315;-80
2024/04/22 05:02:40;;;;;;;;;;;;;;;;;;5397795;26;20374;-79
2024/04/22 05:05:05;;;;;;;;;;;;;;;;;;5402643;26;19933;-80
2024/04/22 05:07:31;;;;;;;;;;;;;;;;;;5388571;26;19937;-79
2024/04/22 05:09:56;;;;;;;;;;;;;;;;;;5375530;26;19936;-80
2024/04/22 05:12:21;;;;;;;;;;;;;;;;;;5378400;26;19933;-80
2024/04/22 05:14:46;;;;;;;;;;;;;;;;;;5401264;26;19938;-79
2024/04/22 05:17:12;;;;;;;;;;;;;;;;;;5410980;26;20010;-79
2024/04/22 05:19:37;;;;;;;;;;;;;;;;;;5455896;26;19993;-79
2024/04/22 05:22:02;;;;;;;;;;;;;;;;;;5423453;26;20262;-78
2024/04/22 05:24:27;;;;;;;;;;;;;;;;;;5423094;26;20385;-80
2024/04/22 05:26:52;;;;;;;;;;;;;;;;;;5405124;26;20321;-78
2024/04/22 05:29:18;;;;;;;;;;;;;;;;;;5419220;26;19929;-79
2024/04/22 05:31:43;;;;;;;;;;;;;;;;;;5419788;26;19936;-79
2024/04/22 05:36:52;;;;;;;;;;;;;;;;;;5417022;26;19968;-79
2024/04/22 05:39:17;;;;;;;;;;;;;;;;;;5388115;26;19929;-78
2024/04/22 05:41:42;;;;;;;;;;;;;;;;;;5402862;26;20286;-79
2024/04/22 05:44:07;;;;;;;;;;;;;;;;;;5403568;26;19955;-79
2024/04/22 05:46:32;;;;;;;;;;;;;;;;;;5419490;26;19929;-80
2024/04/22 05:48:57;;;;;;;;;;;;;;;;;;5429233;26;19929;-79
2024/04/22 05:51:23;;;;;;;;;;;;;;;;;;5419929;26;19992;-79
2024/04/22 05:53:48;;;;;;;;;;;;;;;;;;5437455;26;19933;-81
2024/04/22 05:56:13;;;;;;;;;;;;;;;;;;5417493;26;19940;-81
2024/04/22 05:58:38;;;;;;;;;;;;;;;;;;5373130;26;19998;-80
2024/04/22 06:01:03;;;;;;;;;;;;;;;;;;5390157;26;20381;-81
2024/04/22 06:03:28;;;;;;;;;;;;;;;;;;5388137;26;19941;-81
2024/04/22 06:05:53;;;;;;;;;;;;;;;;;;5419741;26;19999;-80
2024/04/22 06:08:18;;;;;;;;;;;;;;;;;;5377975;26;19937;-80
2024/04/22 06:10:44;;;;;;;;;;;;;;;;;;5383101;26;19929;-80
2024/04/22 06:13:09;;;;;;;;;;;;;;;;;;5402254;26;19929;-80
2024/04/22 06:15:34;;;;;;;;;;;;;;;;;;5387316;26;19931;-79
2024/04/22 06:17:59;;;;;;;;;;;;;;;;;;5389611;26;19947;-81
2024/04/22 06:20:24;;;;;;;;;;;;;;;;;;5422727;26;19939;-79
2024/04/22 06:22:49;;;;;;;;;;;;;;;;;;5407230;26;19999;-78
2024/04/22 06:25:14;;;;;;;;;;;;;;;;;;5414368;26;19929;-79
2024/04/22 06:27:40;;;;;;;;;;;;;;;;;;5396812;26;20314;-79
2024/04/22 06:30:05;;;;;;;;;;;;;;;;;;5421849;26;19979;-80
2024/04/22 06:32:35;;;;;;;;;;;;;;;;;;5417896;26;20366;-79
2024/04/22 06:35:00;;;;;;;;;;;;;;;;;;5431911;26;20259;-80
2024/04/22 06:37:25;;;;;;;;;;;;;;;;;;5407139;26;20269;-79
2024/04/22 06:39:50;;;;;;;;;;;;;;;;;;5422397;26;19932;-78
2024/04/22 06:42:15;;;;;;;;;;;;;;;;;;5419871;26;20260;-78
2024/04/22 06:44:40;;;;;;;;;;;;;;;;;;5406557;26;19938;-78
2024/04/22 06:47:05;;;;;;;;;;;;;;;;;;5390118;26;19940;-81
2024/04/22 06:49:32;;;;;;;;;;;;;;;;;;5419234;26;19936;-79
2024/04/22 06:51:57;;;;;;;;;;;;;;;;;;5421595;26;19938;-78
2024/04/22 06:54:22;;;;;;;;;;;;;;;;;;5421116;26;19933;-80
2024/04/22 06:56:48;;;;;;;;;;;;;;;;;;5376024;26;19930;-81
2024/04/22 06:59:13;;;;;;;;;;;;;;;;;;5381122;26;19933;-78
2024/04/22 07:01:38;;;;;;;;;;;;;;;;;;5398634;26;19940;-80
2024/04/22 07:04:04;;;;;;;;;;;;;;;;;;5395505;26;19929;-78
2024/04/22 07:06:29;;;;;;;;;;;;;;;;;;5457708;26;20308;-80
2024/04/22 07:08:54;;;;;;;;;;;;;;;;;;5438937;26;19936;-78
2024/04/22 07:11:19;;;;;;;;;;;;;;;;;;5419144;26;19929;-80
2024/04/22 07:13:44;;;;;;;;;;;;;;;;;;5405636;26;19936;-78
2024/04/22 07:16:09;;;;;;;;;;;;;;;;;;5389115;26;19940;-80
2024/04/22 07:18:34;;;;;;;;;;;;;;;;;;5403581;26;19929;-81
2024/04/22 07:21:00;;;;;;;;;;;;;;;;;;5418073;26;20134;-80
2024/04/22 07:23:25;;;;;;;;;;;;;;;;;;5418784;26;19975;-80
2024/04/22 07:25:50;;;;;;;;;;;;;;;;;;5371780;26;19929;-79
2024/04/22 07:28:15;;;;;;;;;;;;;;;;;;5430331;26;19929;-80
2024/04/22 07:30:40;;;;;;;;;;;;;;;;;;5394356;26;19940;-78
2024/04/22 07:33:05;;;;;;;;;;;;;;;;;;5381641;26;19928;-79
2024/04/22 07:35:30;;;;;;;;;;;;;;;;;;5411138;26;20389;-78
2024/04/22 07:37:55;;;;;;;;;;;;;;;;;;5405538;26;19933;-80
2024/04/22 07:40:21;;;;;;;;;;;;;;;;;;5406147;26;19929;-78
2024/04/22 07:42:46;;;;;;;;;;;;;;;;;;5403366;26;19940;-78
2024/04/22 07:45:12;;;;;;;;;;;;;;;;;;5419962;26;19936;-78
2024/04/22 07:47:37;;;;;;;;;;;;;;;;;;5388746;26;20267;-79
2024/04/22 07:50:02;;;;;;;;;;;;;;;;;;5403439;26;19935;-80
2024/04/22 07:52:27;;;;;;;;;;;;;;;;;;5405445;26;20347;-78
2024/04/22 07:54:52;;;;;;;;;;;;;;;;;;5388937;26;19935;-80
2024/04/22 07:57:18;;;;;;;;;;;;;;;;;;5412919;26;20389;-79
2024/04/22 07:59:43;;;;;;;;;;;;;;;;;;5394049;26;20002;-78
2024/04/22 08:02:08;;;;;;;;;;;;;;;;;;5388531;26;19933;-78
2024/04/22 08:04:33;;;;;;;;;;;;;;;;;;5433386;26;19936;-78
2024/04/22 08:06:58;;;;;;;;;;;;;;;;;;5456933;26;19937;-78
2024/04/22 08:09:23;;;;;;;;;;;;;;;;;;5441439;26;19936;-80
2024/04/22 08:11:48;;;;;;;;;;;;;;;;;;5424378;26;19933;-78
2024/04/22 08:14:13;;;;;;;;;;;;;;;;;;5400624;26;19929;-79
2024/04/22 08:16:39;;;;;;;;;;;;;;;;;;5420202;26;19929;-78
2024/04/22 08:19:04;;;;;;;;;;;;;;;;;;5388710;26;20363;-78
2024/04/22 08:21:29;;;;;;;;;;;;;;;;;;5415700;26;20608;-78
2024/04/22 08:23:54;;;;;;;;;;;;;;;;;;5419909;26;20396;-79
2024/04/22 08:26:19;;;;;;;;;;;;;;;;;;5403084;26;19936;-79
2024/04/22 08:28:44;;;;;;;;;;;;;;;;;;5420150;26;19929;-78
2024/04/22 08:31:09;;;;;;;;;;;;;;;;;;5427116;26;20369;-80
2024/04/22 08:33:34;;;;;;;;;;;;;;;;;;5441924;26;20321;-78
2024/04/22 08:35:59;;;;;;;;;;;;;;;;;;5373623;26;20069;-80
2024/04/22 08:38:25;;;;;;;;;;;;;;;;;;5419903;26;19937;-78
2024/04/22 08:40:50;;;;;;;;;;;;;;;;;;5401565;26;19941;-79
2024/04/22 08:43:15;;;;;;;;;;;;;;;;;;5402954;26;19929;-79
2024/04/22 08:45:44;;;;;;;;;;;;;;;;;;5419662;26;19929;-79
2024/04/22 08:48:09;;;;;;;;;;;;;;;;;;5388028;26;20366;-79
2024/04/22 08:50:35;;;;;;;;;;;;;;;;;;5405801;26;19930;-80
2024/04/22 08:53:00;;;;;;;;;;;;;;;;;;5401502;26;19932;-79
2024/04/22 08:55:25;;;;;;;;;;;;;;;;;;5387696;26;19935;-79
2024/04/22 08:57:50;;;;;;;;;;;;;;;;;;5402718;26;19933;-79
2024/04/22 09:00:15;;;;;;;;;;;;;;;;;;5387610;26;19929;-78
2024/04/22 09:02:40;;;;;;;;;;;;;;;;;;5418918;26;20395;-79
2024/04/22 09:05:06;;;;;;;;;;;;;;;;;;5404209;26;20002;-79
2024/04/22 09:07:31;;;;;;;;;;;;;;;;;;5387765;26;19936;-81
2024/04/22 09:09:58;;;;;;;;;;;;;;;;;;5400568;26;19929;-78
2024/04/22 09:12:23;;;;;;;;;;;;;;;;;;5382610;26;19929;-78
2024/04/22 09:14:48;;;;;;;;;;;;;;;;;;5408235;26;19960;-79
2024/04/22 09:17:13;;;;;;;;;;;;;;;;;;5408336;26;20358;-79
2024/04/22 09:19:38;;;;;;;;;;;;;;;;;;5440369;26;19998;-79
2024/04/22 09:22:04;;;;;;;;;;;;;;;;;;5402452;26;19936;-78
2024/04/22 09:24:29;;;;;;;;;;;;;;;;;;5418425;26;19933;-78
2024/04/22 09:26:56;;;;;;;;;;;;;;;;;;5414471;26;19940;-80
2024/04/22 09:29:21;;;;;;;;;;;;;;;;;;5420528;26;19957;-79
2024/04/22 09:31:46;;;;;;;;;;;;;;;;;;5404312;26;19940;-80
2024/04/22 09:34:11;;;;;;;;;;;;;;;;;;5386905;26;19932;-79
2024/04/22 09:36:37;;;;;;;;;;;;;;;;;;5402133;26;19929;-79
2024/04/22 09:39:03;;;;;;;;;;;;;;;;;;5416438;26;19929;-80
2024/04/22 09:41:28;;;;;;;;;;;;;;;;;;5419104;26;19936;-79
2024/04/22 09:43:53;;;;;;;;;;;;;;;;;;5387084;26;19940;-80
2024/04/22 09:46:18;;;;;;;;;;;;;;;;;;5411361;26;19998;-80
2024/04/22 09:48:43;;;;;;;;;;;;;;;;;;5439875;26;19977;-78
2024/04/22 09:51:08;;;;;;;;;;;;;;;;;;5432244;26;19928;-79
2024/04/22 09:53:34;;;;;;;;;;;;;;;;;;5389834;26;19961;-78
2024/04/22 09:55:59;;;;;;;;;;;;;;;;;;5421657;26;19943;-80
2024/04/22 09:58:24;;;;;;;;;;;;;;;;;;5401909;26;19936;-79
2024/04/22 10:00:50;;;;;;;;;;;;;;;;;;5408880;26;19975;-78
2024/04/22 10:03:15;;;;;;;;;;;;;;;;;;5421973;26;19936;-80
2024/04/22 10:05:40;;;;;;;;;;;;;;;;;;5404429;26;20449;-79
2024/04/22 10:08:06;;;;;;;;;;;;;;;;;;5422224;26;19936;-79
2024/04/22 10:10:31;;;;;;;;;;;;;;;;;;5404911;26;20332;-80
2024/04/22 10:12:56;;;;;;;;;;;;;;;;;;5375269;26;20320;-80
2024/04/22 10:15:21;;;;;;;;;;;;;;;;;;5406733;26;19929;-80
2024/04/22 10:17:46;;;;;;;;;;;;;;;;;;5419550;26;19941;-78
2024/04/22 10:20:12;;;;;;;;;;;;;;;;;;5391761;26;20293;-79
2024/04/22 10:22:37;;;;;;;;;;;;;;;;;;5390648;26;19929;-78
2024/04/22 10:25:05;;;;;;;;;;;;;;;;;;5419467;26;19933;-79
2024/04/22 10:27:30;;;;;;;;;;;;;;;;;;5421532;26;19928;-79
2024/04/22 10:29:55;;;;;;;;;;;;;;;;;;5421964;26;19936;-78
2024/04/22 10:32:20;;;;;;;;;;;;;;;;;;5421834;26;19928;-79
2024/04/22 10:34:45;;;;;;;;;;;;;;;;;;5389699;26;19928;-80
2024/04/22 10:37:11;;;;;;;;;;;;;;;;;;5382363;26;19953;-80
2024/04/22 10:39:36;;;;;;;;;;;;;;;;;;5411745;26;19929;-79
2024/04/22 10:42:01;;;;;;;;;;;;;;;;;;5437389;26;20343;-79
2024/04/22 10:44:26;;;;;;;;;;;;;;;;;;5448155;26;19929;-79
2024/04/22 10:46:51;;;;;;;;;;;;;;;;;;5407700;26;19929;-80
2024/04/22 10:49:17;;;;;;;;;;;;;;;;;;5381363;26;19930;-78
2024/04/22 10:51:42;;;;;;;;;;;;;;;;;;5398683;26;19936;-80
2024/04/22 10:54:07;;;;;;;;;;;;;;;;;;5391551;26;19929;-79
2024/04/22 10:56:32;;;;;;;;;;;;;;;;;;5398304;26;19971;-79
2024/04/22 10:58:58;;;;;;;;;;;;;;;;;;5390180;26;19937;-79
2024/04/22 11:01:23;;;;;;;;;;;;;;;;;;5404592;26;20279;-79
2024/04/22 11:03:48;;;;;;;;;;;;;;;;;;5403412;26;19929;-79
2024/04/22 11:06:13;;;;;;;;;;;;;;;;;;5407699;26;19936;-80
2024/04/22 11:08:38;;;;;;;;;;;;;;;;;;5399189;26;19937;-80
2024/04/22 11:11:03;;;;;;;;;;;;;;;;;;5404703;26;20428;-80
2024/04/22 11:13:28;;;;;;;;;;;;;;;;;;5421602;26;19936;-81
2024/04/22 11:15:53;;;;;;;;;;;;;;;;;;5404174;26;19940;-80
2024/04/22 11:18:22;;;;;;;;;;;;;;;;;;5390230;26;19929;-79
2024/04/22 11:20:47;;;;;;;;;;;;;;;;;;5421579;26;19952;-78
2024/04/22 11:23:12;;;;;;;;;;;;;;;;;;5421506;26;19964;-79
2024/04/22 11:25:37;;;;;;;;;;;;;;;;;;5420894;26;19929;-79
2024/04/22 11:28:02;;;;;;;;;;;;;;;;;;5410083;26;19929;-79
2024/04/22 11:30:27;;;;;;;;;;;;;;;;;;5413268;26;19936;-79
2024/04/22 11:32:52;;;;;;;;;;;;;;;;;;5410298;26;20352;-80
2024/04/22 11:35:18;;;;;;;;;;;;;;;;;;5401083;26;20439;-78
2024/04/22 11:37:43;;;;;;;;;;;;;;;;;;5406581;26;20002;-79
2024/04/22 11:40:08;;;;;;;;;;;;;;;;;;5411568;26;19929;-79
2024/04/22 11:42:33;;;;;;;;;;;;;;;;;;5443740;26;19929;-79
2024/04/22 11:44:58;;;;;;;;;;;;;;;;;;5406034;26;19929;-79
2024/04/22 11:47:26;;;;;;;;;;;;;;;;;;5420749;26;19929;-80
2024/04/22 11:49:53;;;;;;;;;;;;;;;;;;5415148;26;19928;-79
2024/04/22 11:52:18;;;;;;;;;;;;;;;;;;5407333;26;19940;-80
2024/04/22 11:54:44;;;;;;;;;;;;;;;;;;5420515;26;19933;-80
2024/04/22 11:57:09;;;;;;;;;;;;;;;;;;5388954;26;19929;-81
2024/04/22 11:59:34;;;;;;;;;;;;;;;;;;5420431;26;19929;-79
2024/04/22 12:01:59;;;;;;;;;;;;;;;;;;5454904;26;19948;-80
2024/04/22 12:04:24;;;;;;;;;;;;;;;;;;5423788;26;19947;-80
2024/04/22 12:06:49;;;;;;;;;;;;;;;;;;5423756;26;19928;-79
2024/04/22 12:09:15;;;;;;;;;;;;;;;;;;5432013;26;19929;-80
2024/04/22 12:11:40;;;;;;;;;;;;;;;;;;5388109;26;19932;-79
2024/04/22 12:14:05;;;;;;;;;;;;;;;;;;5402817;26;19940;-79
2024/04/22 12:16:30;;;;;;;;;;;;;;;;;;5388122;26;19940;-78
2024/04/22 12:18:55;;;;;;;;;;;;;;;;;;5420211;26;19966;-78
2024/04/22 12:21:20;;;;;;;;;;;;;;;;;;5419408;26;19937;-79
2024/04/22 12:23:45;;;;;;;;;;;;;;;;;;5421199;26;20355;-80
2024/04/22 12:26:10;;;;;;;;;;;;;;;;;;5401016;26;19929;-78
2024/04/22 12:28:36;;;;;;;;;;;;;;;;;;5448021;26;19928;-79
2024/04/22 12:31:01;;;;;;;;;;;;;;;;;;5440856;26;19929;-79
2024/04/22 12:33:26;;;;;;;;;;;;;;;;;;5396790;26;19933;-80
2024/04/22 12:35:51;;;;;;;;;;;;;;;;;;5419188;26;19944;-80
2024/04/22 12:38:16;;;;;;;;;;;;;;;;;;5387606;26;19936;-78
2024/04/22 12:40:41;;;;;;;;;;;;;;;;;;5402815;26;19935;-79
2024/04/22 12:43:09;;;;;;;;;;;;;;;;;;5418880;26;19929;-80
2024/04/22 12:45:35;;;;;;;;;;;;;;;;;;5405368;26;19929;-78
2024/04/22 12:50:48;;;;;;;;;;;;;;;;;;5419055;26;19994;-78
2024/04/22 12:53:13;;;;;;;;;;;;;;;;;;5388110;26;19929;-79
2024/04/22 12:55:38;;;;;;;;;;;;;;;;;;5418761;26;19929;-78
2024/04/22 12:58:03;;;;;;;;;;;;;;;;;;5402051;26;20438;-80
2024/04/22 13:00:28;;;;;;;;;;;;;;;;;;5418547;26;19935;-79
2024/04/22 13:02:53;;;;;;;;;;;;;;;;;;5384174;26;19974;-79
2024/04/22 13:05:19;;;;;;;;;;;;;;;;;;5400529;26;19928;-78
2024/04/22 13:07:44;;;;;;;;;;;;;;;;;;5421859;26;19928;-78
2024/04/22 13:10:09;;;;;;;;;;;;;;;;;;5410006;26;19936;-78
2024/04/22 13:12:34;;;;;;;;;;;;;;;;;;5440194;26;19935;-79
2024/04/22 13:14:59;;;;;;;;;;;;;;;;;;5449509;26;19997;-78
2024/04/22 13:17:24;;;;;;;;;;;;;;;;;;5416797;26;19936;-79
2024/04/22 13:19:49;;;;;;;;;;;;;;;;;;5387220;26;19929;-79
2024/04/22 13:22:15;;;;;;;;;;;;;;;;;;5378364;26;19929;-78
2024/04/22 13:24:40;;;;;;;;;;;;;;;;;;5412552;26;19936;-78
2024/04/22 13:27:05;;;;;;;;;;;;;;;;;;5386624;26;20247;-78
2024/04/22 13:29:33;;;;;;;;;;;;;;;;;;5402338;26;19933;-79
2024/04/22 13:31:59;;;;;;;;;;;;;;;;;;5403914;26;19941;-79
2024/04/22 13:34:24;;;;;;;;;;;;;;;;;;5418671;26;20002;-79
2024/04/22 13:36:49;;;;;;;;;;;;;;;;;;5418905;26;20382;-81
2024/04/22 13:39:15;;;;;;;;;;;;;;;;;;5387717;26;19954;-79
2024/04/22 13:41:40;;;;;;;;;;;;;;;;;;5417198;26;19937;-80
2024/04/22 13:44:05;;;;;;;;;;;;;;;;;;5387434;26;19929;-79
2024/04/22 13:46:30;;;;;;;;;;;;;;;;;;5419323;26;19933;-79
2024/04/22 13:48:55;;;;;;;;;;;;;;;;;;5402482;26;19941;-79
2024/04/22 13:51:20;;;;;;;;;;;;;;;;;;5386782;26;19929;-76
2024/04/22 13:53:45;;;;;;;;;;;;;;;;;;5400327;26;19936;-79
2024/04/22 13:56:11;;;;;;;;;;;;;;;;;;5416941;26;19929;-79
2024/04/22 13:58:36;;;;;;;;;;;;;;;;;;5398989;26;20367;-77
2024/04/22 14:01:01;;;;;;;;;;;;;;;;;;5415534;26;19936;-77
2024/04/22 14:03:26;;;;;;;;;;;;;;;;;;5427341;26;20335;-77
2024/04/22 14:05:52;;;;;;;;;;;;;;;;;;5404116;26;19938;-77
2024/04/22 14:08:17;;;;;;;;;;;;;;;;;;5413728;26;20329;-76
2024/04/22 14:10:42;;;;;;;;;;;;;;;;;;5430898;26;19933;-76
2024/04/22 14:13:07;;;;;;;;;;;;;;;;;;5451797;26;19940;-79
2024/04/22 14:15:32;;;;;;;;;;;;;;;;;;5407076;26;20436;-78
2024/04/22 14:17:57;;;;;;;;;;;;;;;;;;5398998;26;20332;-77
2024/04/22 14:20:23;;;;;;;;;;;;;;;;;;5404726;26;20379;-79
2024/04/22 14:22:48;;;;;;;;;;;;;;;;;;5409015;26;19940;-78
2024/04/22 14:25:13;;;;;;;;;;;;;;;;;;5413106;26;19929;-76
2024/04/22 14:27:38;;;;;;;;;;;;;;;;;;5401396;26;20398;-80
2024/04/22 14:30:03;;;;;;;;;;;;;;;;;;5447620;26;20270;-76
2024/04/22 14:32:29;;;;;;;;;;;;;;;;;;5402232;26;20363;-79
2024/04/22 14:34:54;;;;;;;;;;;;;;;;;;5415983;26;19929;-80
2024/04/22 14:37:19;;;;;;;;;;;;;;;;;;5418767;26;19941;-80
2024/04/22 14:39:44;;;;;;;;;;;;;;;;;;5374271;26;19930;-77
2024/04/22 14:42:10;;;;;;;;;;;;;;;;;;5390469;26;19928;-80
2024/04/22 14:44:36;;;;;;;;;;;;;;;;;;5411903;26;19929;-78
2024/04/22 14:47:02;;;;;;;;;;;;;;;;;;5399639;26;19930;-79
2024/04/22 14:49:27;;;;;;;;;;;;;;;;;;5407589;26;20052;-78
2024/04/22 14:51:52;;;;;;;;;;;;;;;;;;5393381;26;19940;-79
2024/04/22 14:54:17;;;;;;;;;;;;;;;;;;5407684;26;19929;-78
2024/04/22 14:56:42;;;;;;;;;;;;;;;;;;5422556;26;19929;-78
2024/04/22 14:59:08;;;;;;;;;;;;;;;;;;5390321;26;20378;-78
2024/04/22 15:01:33;;;;;;;;;;;;;;;;;;5418779;26;19956;-79
2024/04/22 15:03:58;;;;;;;;;;;;;;;;;;5453151;26;19929;-79
2024/04/22 15:06:23;;;;;;;;;;;;;;;;;;5379943;26;19935;-79
2024/04/22 15:08:48;;;;;;;;;;;;;;;;;;5412103;26;19994;-79
2024/04/22 15:11:15;;;;;;;;;;;;;;;;;;5422323;26;20008;-79
2024/04/22 15:13:40;;;;;;;;;;;;;;;;;;5413469;26;19929;-80
2024/04/22 15:16:06;;;;;;;;;;;;;;;;;;5405356;26;19939;-78
2024/04/22 15:18:31;;;;;;;;;;;;;;;;;;5421517;26;19937;-80
2024/04/22 15:20:56;;;;;;;;;;;;;;;;;;5393883;26;19929;-78
2024/04/22 15:23:21;;;;;;;;;;;;;;;;;;5457484;26;19936;-79
2024/04/22 15:25:46;;;;;;;;;;;;;;;;;;5441173;26;19932;-78
2024/04/22 15:28:12;;;;;;;;;;;;;;;;;;5405546;26;20374;-78
2024/04/22 15:30:37;;;;;;;;;;;;;;;;;;5404683;26;19929;-78
2024/04/22 15:33:02;;;;;;;;;;;;;;;;;;5421539;26;19928;-78
2024/04/22 15:35:27;;;;;;;;;;;;;;;;;;5389770;26;20336;-79
2024/04/22 15:37:53;;;;;;;;;;;;;;;;;;5403508;26;19936;-79
2024/04/22 15:40:18;;;;;;;;;;;;;;;;;;5420081;26;19929;-80
2024/04/22 15:42:43;;;;;;;;;;;;;;;;;;5388008;26;20283;-77
2024/04/22 15:45:08;;;;;;;;;;;;;;;;;;5386848;26;19929;-79
2024/04/22 15:47:33;;;;;;;;;;;;;;;;;;5419064;26;19937;-78
2024/04/22 15:49:58;;;;;;;;;;;;;;;;;;5418405;26;19998;-79
2024/04/22 15:52:23;;;;;;;;;;;;;;;;;;5387079;26;19936;-79
2024/04/22 15:54:49;;;;;;;;;;;;;;;;;;5418291;26;20371;-77
2024/04/22 15:57:14;;;;;;;;;;;;;;;;;;5395748;26;20407;-77
2024/04/22 15:59:39;;;;;;;;;;;;;;;;;;5421863;26;20077;-77
2024/04/22 16:02:04;;;;;;;;;;;;;;;;;;5417404;26;19937;-77
2024/04/22 16:04:29;;;;;;;;;;;;;;;;;;5401261;26;19929;-77
2024/04/22 16:06:54;;;;;;;;;;;;;;;;;;5407752;26;19937;-78
2024/04/22 16:09:21;;;;;;;;;;;;;;;;;;5439931;26;19928;-77
2024/04/22 16:11:46;;;;;;;;;;;;;;;;;;5391922;26;19936;-78
2024/04/22 16:14:11;;;;;;;;;;;;;;;;;;5386561;26;19940;-78
2024/04/22 16:16:36;;;;;;;;;;;;;;;;;;5408573;26;19974;-78
2024/04/22 16:19:01;;;;;;;;;;;;;;;;;;5403838;26;19930;-78
2024/04/22 16:21:26;;;;;;;;;;;;;;;;;;5418546;26;19929;-78
2024/04/22 16:23:51;;;;;;;;;;;;;;;;;;5417938;26;19998;-79
2024/04/22 16:26:17;;;;;;;;;;;;;;;;;;5418359;26;20279;-78
2024/04/22 16:28:42;;;;;;;;;;;;;;;;;;5386549;26;19933;-79
2024/04/22 16:31:07;;;;;;;;;;;;;;;;;;5386432;26;19929;-78
2024/04/22 16:33:32;;;;;;;;;;;;;;;;;;5417518;26;19941;-78
2024/04/22 16:35:57;;;;;;;;;;;;;;;;;;5386660;26;19941;-77
2024/04/22 16:38:22;;;;;;;;;;;;;;;;;;5386410;26;19953;-78
2024/04/22 16:40:47;;;;;;;;;;;;;;;;;;5375977;26;20363;-77